Flight Track Log - Related Links

Times and Time Zones

All times are in EDT time to prevent confusion due to time zone crossing. See the N6ZQ flight status page for this flight to view local times or setup timezone preferences in your user account.

Time Position Orientation Groundspeed Altitude Reporting Facility
EDT Latitude Longitude Course Direction KTS MPH feet Rate Location/Type
Tue 06:42:08 AM 38.3167 -77.6000 270° West 163 188 6,800  Level Potomac TRACON
Tue 06:43:08 AM 38.3167 -77.6500 270° West 140 161 7,700 600 Climbing Potomac TRACON
Tue 06:44:08 AM 38.3000 -77.7167 252° West 161 185 8,000 150 Climbing Potomac TRACON
Tue 06:45:08 AM 38.3000 -77.7667 270° West 177 204 8,000  Level Potomac TRACON
Tue 06:46:08 AM 38.3000 -77.8333 270° West 181 208 8,000  Level Potomac TRACON
Tue 06:47:00 AM 38.3000 -77.6433 270° West  Level FlightAware Approximate
Tue 06:47:08 AM 38.2833 -77.9000 252° West 181 208 8,000  Level Potomac TRACON
Tue 06:48:08 AM 38.3000 -77.9500 293° West 184 212 8,000  Level Potomac TRACON
Tue 06:49:08 AM 38.3000 -78.0167 270° West 183 211 8,000  Level Potomac TRACON
Tue 06:50:08 AM 38.3000 -78.0833 270° West 188 216 8,000  Level Potomac TRACON
Tue 06:51:08 AM 38.3167 -78.1500 288° West 188 216 8,000  Level Potomac TRACON
Tue 06:52:08 AM 38.3167 -78.2167 270° West 187 215 8,000  Level Potomac TRACON
Tue 06:53:08 AM 38.3333 -78.2833 288° West 186 214 8,000  Level Potomac TRACON
Tue 06:54:08 AM 38.3333 -78.3500 270° West 186 214 8,000  Level Potomac TRACON
Tue 06:55:08 AM 38.3333 -78.4167 270° West 184 212 8,000 250 Level Potomac TRACON
Tue 06:56:08 AM 38.3500 -78.4667 293° West 168 193 8,500 500 Climbing Potomac TRACON
Tue 06:57:08 AM 38.3500 -78.5333 270° West 163 188 9,000 513 Climbing Potomac TRACON
Tue 06:58:05 AM 38.3617 -78.5706 292° West 177 204 9,500 513 Climbing Washington Center
Tue 06:59:05 AM 38.3686 -78.6239 279° West 163 188 10,000 246 Climbing Washington Center
Tue 07:00:07 AM 38.3733 -78.6772 276° West 158 182 10,000  Level Washington Center
Tue 07:01:05 AM 38.3803 -78.7383 278° West 164 189 10,000  Level Washington Center
Tue 07:02:06 AM 38.3869 -78.8022 278° West 177 204 10,000  Level Washington Center
Tue 07:03:07 AM 38.3933 -78.8661 277° West 182 209 10,000  Level Washington Center
Tue 07:04:07 AM 38.4019 -78.9353 279° West 192 221 10,000  Level Washington Center
Tue 07:05:05 AM 38.4106 -78.9992 280° West 192 221 10,000  Level Washington Center
Tue 07:06:06 AM 38.4169 -79.0658 277° West 192 221 10,000  Level Washington Center
Tue 07:07:07 AM 38.4256 -79.1350 279° West 192 221 10,000  Level Washington Center
Tue 07:08:05 AM 38.4319 -79.1992 277° West 192 221 10,000  Level Washington Center
Tue 07:09:05 AM 38.4381 -79.2656 277° West 192 221 10,000  Level Washington Center
Tue 07:10:06 AM 38.4447 -79.3242 278° West 192 221 10,000  Level Washington Center
Tue 07:11:06 AM 38.4531 -79.3883 279° West 192 221 10,000  Level Washington Center
Tue 07:12:07 AM 38.4594 -79.4522 277° West 192 221 10,000  Level Washington Center
Tue 07:13:07 AM 38.4636 -79.5161 275° West 187 215 10,000 51 Level Washington Center
Tue 07:14:05 AM 38.4717 -79.5856 278° West 182 209 10,100 50 Climbing Washington Center
Tue 07:15:06 AM 38.4781 -79.6469 278° West 182 209 10,100  Level Washington Center
Tue 07:16:08 AM 38.4842 -79.7108 277° West 182 209 10,100  Level Washington Center
Tue 07:17:07 AM 38.4906 -79.7669 278° West 182 209 10,100  Level Washington Center
Tue 07:18:07 AM 38.4950 -79.8231 276° West 182 209 10,100 -51 Level Washington Center
Tue 07:19:05 AM 38.5031 -79.8844 280° West 182 209 10,000 -50 Descending Washington Center
Tue 07:20:07 AM 38.5094 -79.9431 278° West 182 209 10,000  Level Washington Center
Tue 07:21:05 AM 38.5133 -80.0044 275° West 172 198 10,000  Level Washington Center
Tue 07:22:06 AM 38.5194 -80.0633 278° West 172 198 10,000  Level Washington Center
Tue 07:23:07 AM 38.5256 -80.1247 277° West 172 198 10,000  Level Washington Center
Tue 07:24:07 AM 38.5297 -80.1781 276° West 172 198 10,000  Level Washington Center
Tue 07:25:07 AM 38.5358 -80.2367 278° West 172 198 10,000  Level Washington Center
Tue 07:26:05 AM 38.5439 -80.2983 280° West 177 204 10,000  Level Washington Center
Tue 07:27:06 AM 38.5478 -80.3594 275° West 177 204 10,000  Level Washington Center
Tue 07:28:12 AM 38.5553 -80.4258 278° West 179 206 10,000  Level Indianapolis Center
Tue 07:29:14 AM 38.5619 -80.4958 277° West 184 212 10,000  Level Indianapolis Center
Tue 07:30:15 AM 38.5689 -80.5622 278° West 189 217 10,000  Level Indianapolis Center
Tue 07:31:16 AM 38.5733 -80.6281 275° West 188 216 10,000  Level Indianapolis Center
Tue 07:32:18 AM 38.5817 -80.6944 279° West 189 217 10,000  Level Indianapolis Center
Tue 07:33:19 AM 38.5867 -80.7597 276° West 186 214 10,000  Level Indianapolis Center
Tue 07:34:20 AM 38.5925 -80.8261 276° West 187 215 10,000  Level Indianapolis Center
Tue 07:35:21 AM 38.5989 -80.8922 277° West 188 216 10,000  Level Indianapolis Center
Tue 07:36:23 AM 38.6069 -80.9722 277° West 189 217 10,000  Level Indianapolis Center
Tue 07:37:24 AM 38.6125 -81.0358 276° West 183 211 10,000  Level Indianapolis Center
Tue 07:38:26 AM 38.6189 -81.1025 277° West 188 216 10,000 -49 Level Indianapolis Center
Tue 07:39:27 AM 38.6250 -81.1692 277° West 188 216 9,900  Descending Indianapolis Center
Tue 07:40:28 AM 38.6308 -81.2333 277° West 182 209 10,000  Climbing Indianapolis Center
Tue 07:41:30 AM 38.6369 -81.3006 277° West 189 217 9,900  Descending Indianapolis Center
Tue 07:42:31 AM 38.6431 -81.3669 277° West 188 216 10,000 49 Climbing Indianapolis Center
Tue 07:43:33 AM 38.6489 -81.4339 276° West 189 217 10,000  Level Indianapolis Center
Tue 07:44:34 AM 38.6544 -81.5014 276° West 190 219 10,000  Level Indianapolis Center
Tue 07:45:35 AM 38.6611 -81.5714 277° West 190 219 10,000 -49 Level Indianapolis Center
Tue 07:46:37 AM 38.6669 -81.6394 276° West 189 217 9,900 -49 Descending Indianapolis Center
Tue 07:47:38 AM 38.6728 -81.7067 276° West 189 217 9,900 49 Level Indianapolis Center
Tue 07:48:40 AM 38.6781 -81.7747 276° West 192 221 10,000 49 Climbing Indianapolis Center
Tue 07:49:41 AM 38.6839 -81.8414 276° West 190 219 10,000  Level Indianapolis Center
Tue 07:50:43 AM 38.6906 -81.9208 276° West 188 216 10,000  Level Indianapolis Center
Tue 07:51:44 AM 38.6961 -81.9892 276° West 192 221 10,000 -49 Level Indianapolis Center
Tue 07:52:45 AM 38.7019 -82.0569 276° West 191 220 9,900  Descending Indianapolis Center
Tue 07:53:47 AM 38.7075 -82.1236 276° West 189 217 10,000 49 Climbing Indianapolis Center
Tue 07:54:48 AM 38.7131 -82.1900 276° West 188 216 10,000  Level Indianapolis Center
Tue 07:55:50 AM 38.7183 -82.2594 276° West 192 221 10,000  Level Indianapolis Center
Tue 07:56:51 AM 38.7233 -82.3256 276° West 189 217 10,000  Level Indianapolis Center
Tue 07:57:53 AM 38.7283 -82.3933 275° West 189 217 10,000  Level Indianapolis Center
Tue 07:58:54 AM 38.7347 -82.4611 277° West 193 222 10,000  Level Indianapolis Center
Tue 07:59:56 AM 38.7408 -82.5439 275° West 194 223 10,000  Level Indianapolis Center
Tue 08:00:57 AM 38.7453 -82.6125 275° West 194 223 10,000  Level Indianapolis Center
Tue 08:01:59 AM 38.7514 -82.6814 277° West 195 224 10,000  Level Indianapolis Center
Tue 08:03:01 AM 38.7558 -82.7503 275° West 194 223 10,000 -49 Level Indianapolis Center
Tue 08:04:02 AM 38.7617 -82.8192 276° West 195 224 9,900 -49 Descending Indianapolis Center
Tue 08:05:04 AM 38.7675 -82.8878 276° West 194 223 9,900  Level Indianapolis Center
Tue 08:06:05 AM 38.7719 -82.9547 275° West 191 220 9,900 49 Level Indianapolis Center
Tue 08:07:07 AM 38.7775 -83.0233 276° West 193 222 10,000 49 Climbing Indianapolis Center
Tue 08:08:08 AM 38.7825 -83.0900 276° West 190 219 10,000 -49 Level Indianapolis Center
Tue 08:09:10 AM 38.7872 -83.1706 274° West 193 222 9,900  Descending Indianapolis Center
Tue 08:10:11 AM 38.7928 -83.2367 276° West 190 219 10,000 49 Climbing Indianapolis Center
Tue 08:11:13 AM 38.7969 -83.3061 274° West 193 222 10,000 -48 Level Indianapolis Center
Tue 08:12:15 AM 38.8022 -83.3722 276° West 189 217 9,900  Descending Indianapolis Center
Tue 08:13:16 AM 38.8069 -83.4414 275° West 193 222 10,000 49 Climbing Indianapolis Center
Tue 08:14:18 AM 38.8117 -83.5183 275° West 188 216 10,000 -49 Level Indianapolis Center
Tue 08:15:19 AM 38.8167 -83.5847 276° West 187 215 9,900  Descending Indianapolis Center
Tue 08:16:21 AM 38.8214 -83.6511 275° West 187 215 10,000 48 Climbing Indianapolis Center
Tue 08:17:23 AM 38.8264 -83.7175 276° West 187 215 10,000  Level Indianapolis Center
Tue 08:18:24 AM 38.8308 -83.7839 275° West 187 215 10,000  Level Indianapolis Center
Tue 08:19:26 AM 38.8350 -83.8519 275° West 189 217 10,000  Level Indianapolis Center
Tue 08:20:27 AM 38.8389 -83.9197 274° West 190 219 10,000  Level Indianapolis Center
Tue 08:21:29 AM 38.8442 -83.9975 275° West 188 216 10,000  Level Indianapolis Center
Tue 08:22:31 AM 38.8486 -84.0667 275° West 194 223 10,000 290 Level Indianapolis Center
Tue 08:23:33 AM 38.8519 -84.1281 274° West 177 204 10,600 537 Climbing Indianapolis Center
Tue 08:24:34 AM 38.8581 -84.1819 278° West 156 180 11,100 537 Climbing Indianapolis Center
Tue 08:25:36 AM 38.8594 -84.2356 272° West 151 174 11,700 435 Climbing Indianapolis Center
Tue 08:26:38 AM 38.8628 -84.2853 275° West 141 162 12,000 146 Climbing Indianapolis Center
Tue 08:27:39 AM 38.8667 -84.3442 275° West 160 184 12,000  Level Indianapolis Center
Tue 08:28:41 AM 38.8711 -84.4172 274° West 173 199 12,000  Level Indianapolis Center
Tue 08:29:43 AM 38.8747 -84.4811 274° West 179 206 12,000  Level Indianapolis Center
Tue 08:30:44 AM 38.8792 -84.5372 276° West 180 207 12,000  Level Indianapolis Center
Tue 08:31:46 AM 38.8831 -84.6153 274° West 183 211 12,000  Level Indianapolis Center
Tue 08:32:48 AM 38.8875 -84.6811 275° West 185 213 12,000  Level Indianapolis Center
Tue 08:33:49 AM 38.8914 -84.7461 274° West 184 212 12,000  Level Indianapolis Center
Tue 08:34:51 AM 38.8947 -84.8117 274° West 185 213 12,000  Level Indianapolis Center
Tue 08:35:53 AM 38.8986 -84.8772 274° West 185 213 12,000  Level Indianapolis Center
Tue 08:36:55 AM 38.9031 -84.9442 275° West 187 215 12,000  Level Indianapolis Center
Tue 08:37:56 AM 38.9075 -85.0097 275° West 185 213 12,000  Level Indianapolis Center
Tue 08:38:58 AM 38.9106 -85.0911 273° West 190 219 12,000  Level Indianapolis Center
Tue 08:40:00 AM 38.9156 -85.1594 275° West 193 222 12,000  Level Indianapolis Center
Tue 08:41:01 AM 38.9194 -85.2258 274° West 189 217 12,000  Level Indianapolis Center
Tue 08:42:03 AM 38.9225 -85.2942 273° West 190 219 12,000  Level Indianapolis Center
Tue 08:43:05 AM 38.9275 -85.3597 276° West 188 216 12,000  Level Indianapolis Center
Tue 08:44:06 AM 38.9300 -85.4294 273° West 192 221 12,000  Level Indianapolis Center
Tue 08:45:08 AM 38.9342 -85.4947 275° West 189 217 12,000  Level Indianapolis Center
Tue 08:46:10 AM 38.9372 -85.5758 273° West 188 216 12,000  Level Indianapolis Center
Tue 08:47:12 AM 38.9408 -85.6425 274° West 189 217 12,000  Level Indianapolis Center
Tue 08:48:13 AM 38.9450 -85.7094 275° West 189 217 12,000  Level Indianapolis Center
Tue 08:49:15 AM 38.9481 -85.7767 273° West 189 217 12,000  Level Indianapolis Center
Tue 08:50:17 AM 38.9519 -85.8419 274° West 186 214 12,000  Level Indianapolis Center
Tue 08:51:18 AM 38.9556 -85.9089 274° West 187 215 12,000  Level Indianapolis Center
Tue 08:52:20 AM 38.9581 -85.9747 273° West 186 214 12,000  Level Indianapolis Center
Tue 08:53:22 AM 38.9617 -86.0531 273° West 184 212 12,000  Level Indianapolis Center
Tue 08:54:24 AM 38.9658 -86.1192 275° West 185 213 12,000  Level Indianapolis Center
Tue 08:55:25 AM 38.9683 -86.1864 273° West 187 215 12,000  Level Indianapolis Center
Tue 08:56:27 AM 38.9708 -86.2503 273° West 183 211 12,000  Level Indianapolis Center
Tue 08:57:29 AM 38.9747 -86.3164 274° West 184 212 12,000  Level Indianapolis Center
Tue 08:58:31 AM 38.9772 -86.3836 273° West 187 215 12,000  Level Indianapolis Center
Tue 08:59:33 AM 38.9800 -86.4489 273° West 184 212 12,000  Level Indianapolis Center
Tue 09:00:34 AM 38.9844 -86.5269 274° West 183 211 12,000  Level Indianapolis Center
Tue 09:01:36 AM 38.9864 -86.5925 272° West 184 212 12,000  Level Indianapolis Center
Tue 09:02:38 AM 38.9897 -86.6622 274° West 182 209 12,000  Level Indianapolis Center
Tue 09:03:40 AM 38.9917 -86.7278 272° West 183 211 12,000  Level Indianapolis Center
Tue 09:04:41 AM 38.9942 -86.7931 273° West 183 211 12,000  Level Indianapolis Center
Tue 09:05:43 AM 38.9978 -86.8575 274° West 182 209 12,000  Level Indianapolis Center
Tue 09:06:45 AM 38.9994 -86.9217 272° West 181 208 12,000  Level Indianapolis Center
Tue 09:07:47 AM 39.0022 -86.9856 273° West 179 206 12,000  Level Indianapolis Center
Tue 09:08:49 AM 39.0050 -87.0500 273° West 180 207 12,000  Level Indianapolis Center
Tue 09:09:50 AM 39.0075 -87.1139 273° West 179 206 12,000  Level Indianapolis Center
Tue 09:10:52 AM 39.0108 -87.1928 273° West 183 211 12,000  Level Indianapolis Center
Tue 09:11:54 AM 39.0131 -87.2575 273° West 183 211 12,000  Level Indianapolis Center
Tue 09:12:56 AM 39.0153 -87.3231 273° West 183 211 12,000  Level Indianapolis Center
Tue 09:13:58 AM 39.0181 -87.3883 273° West 183 211 12,000  Level Indianapolis Center
Tue 09:15:00 AM 39.0203 -87.4542 273° West 184 212 12,000  Level Indianapolis Center
Tue 09:16:01 AM 39.0231 -87.5186 273° West 182 209 12,000  Level Indianapolis Center
Tue 09:17:03 AM 39.0247 -87.5831 272° West 180 207 12,000  Level Indianapolis Center
Tue 09:18:05 AM 39.0278 -87.6619 273° West 182 209 12,000  Level Indianapolis Center
Tue 09:19:07 AM 39.0283 -87.7275 271° West 183 211 12,000  Level Indianapolis Center
Tue 09:20:09 AM 39.0314 -87.7939 273° West 185 213 12,000  Level Indianapolis Center
Tue 09:21:10 AM 39.0333 -87.8581 272° West 182 209 12,000  Level Indianapolis Center
Tue 09:22:12 AM 39.0369 -87.9233 274° West 182 209 12,000  Level Indianapolis Center
Tue 09:23:14 AM 39.0386 -87.9900 272° West 185 213 12,000  Level Indianapolis Center
Tue 09:24:16 AM 39.0408 -88.0550 273° West 183 211 12,000  Level Indianapolis Center
Tue 09:25:18 AM 39.0417 -88.1219 271° West 185 213 12,000  Level Indianapolis Center
Tue 09:26:19 AM 39.0428 -88.2031 271° West 185 213 12,000  Level Kansas City Center
Tue 09:27:21 AM 39.0453 -88.2689 273° West 184 212 12,000  Level Kansas City Center
Tue 09:28:23 AM 39.0475 -88.3358 272° West 186 214 12,000  Level Kansas City Center
Tue 09:29:25 AM 39.0483 -88.4008 271° West 182 209 12,000  Level Kansas City Center
Tue 09:30:26 AM 39.0503 -88.4672 272° West 185 213 12,000  Level Kansas City Center
Tue 09:31:28 AM 39.0528 -88.5319 273° West 183 211 12,000  Level Kansas City Center
Tue 09:32:30 AM 39.0422 -88.5989 259° West 197 227 12,000  Level Kansas City Center
Tue 09:33:32 AM 39.0472 -88.6686 275° West 183 211 12,000  Level Kansas City Center
Tue 09:34:34 AM 39.0458 -88.7336 268° West 182 209 12,000  Level Kansas City Center
Tue 09:35:36 AM 39.0506 -88.7989 275° West 182 209 12,000  Level Kansas City Center
Tue 09:36:38 AM 39.0539 -88.8639 274° West 183 211 12,000  Level Kansas City Center
Tue 09:37:40 AM 39.0550 -88.9283 271° West 182 209 12,000 48 Level Kansas City Center
Tue 09:38:42 AM 39.0592 -89.0086 274° West 185 213 12,100 48 Climbing Kansas City Center
Tue 09:39:44 AM 39.0608 -89.0731 272° West 181 208 12,100 -48 Level Kansas City Center
Tue 09:40:46 AM 39.0606 -89.1428 270° West 183 211 12,000  Descending Kansas City Center
Tue 09:41:48 AM 39.0431 -89.2047 250° West 187 215 12,100 48 Climbing Kansas City Center
Tue 09:42:50 AM 39.0186 -89.2644 242° Southwest 189 217 12,100  Level Kansas City Center
Tue 09:43:52 AM 38.9942 -89.3297 244° Southwest 189 217 12,100 -48 Level Kansas City Center
Tue 09:44:54 AM 38.9711 -89.3911 244° Southwest 190 219 12,000 -48 Descending Kansas City Center
Tue 09:45:56 AM 38.9456 -89.4567 243° Southwest 192 221 12,000  Level Kansas City Center
Tue 09:46:58 AM 38.9200 -89.5167 241° Southwest 192 221 12,000  Level Kansas City Center
Tue 09:48:00 AM 38.8925 -89.5808 241° Southwest 192 221 12,000  Level Kansas City Center
Tue 09:49:02 AM 38.8722 -89.6431 247° West 189 217 12,000  Level Kansas City Center
Tue 09:50:04 AM 38.8497 -89.6953 241° Southwest 191 220 12,000  Level Kansas City Center
Tue 09:51:06 AM 38.8206 -89.7675 243° Southwest 191 220 12,000  Level Kansas City Center
Tue 09:52:08 AM 38.7989 -89.8275 245° Southwest 187 215 12,000  Level Kansas City Center
Tue 09:53:10 AM 38.7753 -89.8897 244° Southwest 191 220 12,000  Level Kansas City Center
Tue 09:54:12 AM 38.7519 -89.9506 244° Southwest 192 221 12,000  Level Kansas City Center
Tue 09:55:14 AM 38.7278 -90.0125 243° Southwest 192 221 12,000  Level Kansas City Center
Tue 09:56:16 AM 38.7025 -90.0736 242° Southwest 194 223 12,000  Level Kansas City Center
Tue 09:57:18 AM 38.6717 -90.1467 242° Southwest 195 224 12,000  Level Kansas City Center
Tue 09:58:20 AM 38.6472 -90.2044 242° Southwest 196 226 12,000  Level Kansas City Center
Tue 09:59:22 AM 38.6208 -90.2653 241° Southwest 196 226 12,000  Level Kansas City Center
Tue 10:00:24 AM 38.5950 -90.3269 242° Southwest 196 226 12,000  Level Kansas City Center
Tue 10:01:26 AM 38.5667 -90.3953 242° Southwest 198 228 12,000  Level Kansas City Center
Tue 10:02:28 AM 38.5436 -90.4581 245° Southwest 195 224 12,000  Level Kansas City Center
Tue 10:03:30 AM 38.5189 -90.5197 243° Southwest 195 224 12,000  Level Kansas City Center
Tue 10:04:32 AM 38.4914 -90.5800 240° Southwest 195 224 12,000  Level Kansas City Center
Tue 10:05:34 AM 38.4650 -90.6558 246° West 195 224 12,000  Level Kansas City Center
Tue 10:06:36 AM 38.4403 -90.7169 243° Southwest 194 223 12,000  Level Kansas City Center
Tue 10:07:38 AM 38.4147 -90.7783 242° Southwest 196 226 12,000  Level Kansas City Center
Tue 10:08:40 AM 38.3894 -90.8392 242° Southwest 195 224 12,000  Level Kansas City Center
Tue 10:09:42 AM 38.3644 -90.9022 243° Southwest 198 228 12,000 -48 Level Kansas City Center
Tue 10:10:44 AM 38.3386 -90.9633 242° Southwest 197 227 11,900  Descending Kansas City Center
Tue 10:11:46 AM 38.3081 -91.0381 242° Southwest 198 228 12,000  Climbing Kansas City Center
Tue 10:12:48 AM 38.2825 -91.1011 243° Southwest 201 231 11,900 -48 Descending Kansas City Center
Tue 10:13:50 AM 38.2553 -91.1633 241° Southwest 202 232 11,900 48 Level Kansas City Center
Tue 10:14:52 AM 38.2294 -91.2275 243° Southwest 203 234 12,000 48 Climbing Kansas City Center
Tue 10:15:54 AM 38.2033 -91.2917 243° Southwest 205 236 12,000  Level Kansas City Center
Tue 10:16:56 AM 38.1764 -91.3561 242° Southwest 207 238 12,000  Level Kansas City Center
Tue 10:17:58 AM 38.1458 -91.4294 242° Southwest 207 238 12,000  Level Kansas City Center
Tue 10:19:00 AM 38.1164 -91.4939 240° Southwest 209 241 12,000  Level Kansas City Center
Tue 10:20:03 AM 38.0872 -91.5581 240° Southwest 210 242 12,000 48 Level Kansas City Center
Tue 10:21:05 AM 38.0653 -91.6250 247° West 205 236 12,100  Climbing Kansas City Center
Tue 10:22:07 AM 38.0317 -91.7039 242° Southwest 209 241 12,000 -48 Descending Kansas City Center
Tue 10:23:09 AM 38.0036 -91.7683 241° Southwest 209 241 12,000 48 Level Kansas City Center
Tue 10:24:11 AM 37.9764 -91.8331 242° Southwest 207 238 12,100 48 Climbing Kansas City Center
Tue 10:25:13 AM 37.9483 -91.8989 242° Southwest 210 242 12,100  Level Kansas City Center
Tue 10:26:15 AM 37.9203 -91.9667 242° Southwest 214 246 12,100 -48 Level Kansas City Center
Tue 10:27:17 AM 37.8917 -92.0339 242° Southwest 215 247 12,000 -97 Descending Kansas City Center
Tue 10:28:19 AM 37.8633 -92.0992 241° Southwest 212 244 11,900 -48 Descending Kansas City Center
Tue 10:29:21 AM 37.8297 -92.1778 242° Southwest 210 242 11,900 48 Level Kansas City Center
Tue 10:30:23 AM 37.8022 -92.2442 242° Southwest 210 242 12,000  Climbing Kansas City Center
Tue 10:31:25 AM 37.7733 -92.3086 240° Southwest 210 242 11,900  Descending Kansas City Center
Tue 10:32:27 AM 37.7461 -92.3725 242° Southwest 207 238 12,000 97 Climbing Kansas City Center
Tue 10:33:29 AM 37.7386 -92.4386 262° West 204 235 12,100  Climbing Kansas City Center
Tue 10:34:31 AM 37.7397 -92.5072 271° West 195 224 12,000 -48 Descending Kansas City Center
Tue 10:35:33 AM 37.7406 -92.5761 271° West 195 224 12,000  Level Kansas City Center
Tue 10:36:35 AM 37.7419 -92.6456 271° West 196 226 12,000  Level Kansas City Center
Tue 10:37:37 AM 37.7436 -92.7142 272° West 196 226 12,000  Level Kansas City Center
Tue 10:38:39 AM 37.7458 -92.7975 272° West 197 227 12,000  Level Kansas City Center
Tue 10:39:41 AM 37.7467 -92.8678 271° West 199 229 12,000  Level Kansas City Center
Tue 10:40:43 AM 37.7478 -92.9389 271° West 201 231 12,000  Level Kansas City Center
Tue 10:41:45 AM 37.7489 -93.0072 271° West 198 228 12,000  Level Kansas City Center
Tue 10:43:00 AM 37.7507 -93.0886 272° West  Level FlightAware Approximate
Tue 10:43:49 AM 37.7528 -93.1486 272° West 201 231 12,000  Level Kansas City Center
Tue 10:44:51 AM 37.7542 -93.2183 271° West 199 229 12,000 48 Level Kansas City Center
Tue 10:45:53 AM 37.7547 -93.3036 270° West 202 232 12,100  Climbing Kansas City Center
Tue 10:46:55 AM 37.7589 -93.3725 274° West 198 228 12,000 -48 Descending Kansas City Center
Tue 10:47:57 AM 37.7589 -93.4433 270° West 200 230 12,000  Level Kansas City Center
Tue 10:48:59 AM 37.7614 -93.5122 273° West 198 228 12,000  Level Kansas City Center
Tue 10:50:01 AM 37.7644 -93.5814 273° West 196 226 12,000  Level Kansas City Center
Tue 10:51:03 AM 37.7658 -93.6506 271° West 197 227 12,000  Level Kansas City Center
Tue 10:52:05 AM 37.7686 -93.7328 272° West 195 224 12,000  Level Kansas City Center
Tue 10:53:07 AM 37.7717 -93.8017 273° West 197 227 12,000  Level Kansas City Center
Tue 10:54:09 AM 37.7733 -93.8728 272° West 199 229 12,000  Level Kansas City Center
Tue 10:55:11 AM 37.7714 -93.9431 268° West 201 231 12,000  Level Kansas City Center
Tue 10:56:13 AM 37.7744 -94.0142 273° West 202 232 12,000  Level Kansas City Center
Tue 10:57:15 AM 37.7764 -94.0850 272° West 202 232 12,000  Level Kansas City Center
Tue 10:58:18 AM 37.7756 -94.1561 269° West 202 232 12,000  Level Kansas City Center
Tue 10:59:20 AM 37.7756 -94.2417 270° West 203 234 12,000  Level Kansas City Center
Tue 11:00:22 AM 37.7756 -94.3125 270° West 202 232 12,000  Level Kansas City Center
Tue 11:01:24 AM 37.7772 -94.3844 272° West 203 234 12,000  Level Kansas City Center
Tue 11:02:26 AM 37.7764 -94.4572 269° West 204 235 12,000  Level Kansas City Center
Tue 11:03:28 AM 37.7772 -94.5261 271° West 205 236 12,000  Level Kansas City Center
Tue 11:04:30 AM 37.7767 -94.6033 270° West 200 230 12,000  Level Kansas City Center
Tue 11:05:32 AM 37.7767 -94.6711 270° West 200 230 12,000  Level Kansas City Center
Tue 11:06:34 AM 37.7767 -94.7475 270° West 197 227 12,000  Level Kansas City Center
Tue 11:07:36 AM 37.7781 -94.8139 272° West 196 226 12,000  Level Kansas City Center
Tue 11:08:38 AM 37.7778 -94.8897 270° West 194 223 12,000  Level Kansas City Center
Tue 11:09:40 AM 37.7772 -94.9569 269° West 196 226 12,000  Level Kansas City Center
Tue 11:10:42 AM 37.7769 -95.0358 270° West 199 229 12,000  Level Kansas City Center
Tue 11:11:44 AM 37.7767 -95.1081 270° West 197 227 12,000  Level Kansas City Center
Tue 11:12:46 AM 37.7767 -95.1769 270° West 197 227 12,000  Level Kansas City Center
Tue 11:13:48 AM 37.7761 -95.2458 269° West 196 226 12,000  Level Kansas City Center
Tue 11:14:50 AM 37.7764 -95.3122 270° West 192 221 12,000  Level Kansas City Center
Tue 11:15:52 AM 37.7753 -95.3789 269° West 191 220 12,000  Level Kansas City Center
Tue 11:16:54 AM 37.7758 -95.4486 271° West 194 223 12,000  Level Kansas City Center
Tue 11:17:56 AM 37.7744 -95.5275 269° West 191 220 12,000  Level Kansas City Center
Tue 11:18:58 AM 37.7744 -95.5928 270° West 188 216 12,000  Level Kansas City Center
Tue 11:20:00 AM 37.7875 -95.6558 285° West 185 213 12,000  Level Kansas City Center
Tue 11:21:02 AM 37.8072 -95.7181 292° West 189 217 12,000  Level Kansas City Center
Tue 11:22:04 AM 37.8261 -95.7819 291° West 193 222 12,000  Level Kansas City Center
Tue 11:23:06 AM 37.8458 -95.8444 292° West 193 222 12,000  Level Kansas City Center
Tue 11:24:08 AM 37.8656 -95.9067 292° West 192 221 12,000  Level Kansas City Center
Tue 11:25:10 AM 37.8892 -95.9844 291° West 194 223 12,000  Level Kansas City Center
Tue 11:26:12 AM 37.9083 -96.0467 291° West 192 221 12,000  Level Kansas City Center
Tue 11:27:14 AM 37.9272 -96.1089 291° West 191 220 12,000  Level Kansas City Center
Tue 11:28:16 AM 37.9453 -96.1689 291° West 193 222 12,000  Level Kansas City Center
Tue 11:29:18 AM 37.9650 -96.2286 293° West 188 216 12,000  Level Kansas City Center
Tue 11:30:20 AM 37.9844 -96.3003 289° West 181 208 12,000  Level Kansas City Center
Tue 11:31:23 AM 38.0025 -96.3603 291° West 182 209 12,000  Level Kansas City Center
Tue 11:32:25 AM 38.0231 -96.4192 294° West 181 208 12,000  Level Kansas City Center
Tue 11:33:27 AM 38.0403 -96.4792 290° West 181 208 12,000  Level Kansas City Center
Tue 11:34:29 AM 38.0583 -96.5383 291° West 180 207 12,000  Level Kansas City Center
Tue 11:35:31 AM 38.0756 -96.5975 290° West 180 207 12,000  Level Kansas City Center
Tue 11:36:33 AM 38.0978 -96.6697 291° West 181 208 12,000  Level Kansas City Center
Tue 11:37:35 AM 38.1161 -96.7294 291° West 182 209 12,000  Level Kansas City Center
Tue 11:38:37 AM 38.1342 -96.7917 290° West 184 212 12,000  Level Kansas City Center
Tue 11:39:39 AM 38.1514 -96.8503 291° West 183 211 12,000  Level Kansas City Center
Tue 11:40:41 AM 38.1697 -96.9092 292° West 180 207 12,000  Level Kansas City Center
Tue 11:41:43 AM 38.1869 -96.9669 291° West 177 204 12,000  Level Kansas City Center
Tue 11:42:45 AM 38.2067 -97.0342 290° West 172 198 12,000  Level Kansas City Center
Tue 11:43:47 AM 38.2242 -97.0919 291° West 174 200 12,000  Level Kansas City Center
Tue 11:44:49 AM 38.2414 -97.1500 291° West 175 201 12,000  Level Kansas City Center
Tue 11:45:51 AM 38.2589 -97.2092 291° West 178 205 12,000  Level Kansas City Center
Tue 11:46:53 AM 38.2761 -97.2689 290° West 180 207 12,000  Level Kansas City Center
Tue 11:47:55 AM 38.2933 -97.3283 290° West 180 207 12,000  Level Kansas City Center
Tue 11:48:57 AM 38.3147 -97.4011 291° West 183 211 12,000  Level Kansas City Center
Tue 11:49:59 AM 38.3331 -97.4622 291° West 185 213 12,000  Level Kansas City Center
Tue 11:51:01 AM 38.3508 -97.5247 290° West 188 216 12,000  Level Kansas City Center
Tue 11:52:03 AM 38.3689 -97.5869 290° West 188 216 12,000  Level Kansas City Center
Tue 11:53:05 AM 38.3872 -97.6497 290° West 191 220 12,000  Level Kansas City Center
Tue 11:54:07 AM 38.4092 -97.7261 290° West 192 221 12,000  Level Kansas City Center
Tue 11:55:09 AM 38.4269 -97.7886 290° West 190 219 12,000  Level Kansas City Center
Tue 11:56:11 AM 38.4447 -97.8522 290° West 192 221 12,000  Level Kansas City Center
Tue 11:57:13 AM 38.4631 -97.9136 291° West 187 215 12,000  Level Kansas City Center
Tue 11:58:15 AM 38.4806 -97.9742 290° West 184 212 12,000 -96 Level Kansas City Center
Tue 11:59:18 AM 38.4967 -98.0333 289° West 179 206 11,800 -432 Descending Kansas City Center
Tue 12:00:20 PM 38.5192 -98.1094 291° West 190 219 11,100 -581 Descending Kansas City Center
Tue 12:01:22 PM 38.5381 -98.1769 290° West 201 231 10,600 -532 Descending Kansas City Center
Tue 12:02:24 PM 38.5581 -98.2453 291° West 204 235 10,000 -581 Descending Kansas City Center
Tue 12:03:26 PM 38.5764 -98.3142 289° West 206 237 9,400 -581 Descending Kansas City Center
Tue 12:04:28 PM 38.5964 -98.3847 290° West 211 243 8,800 -532 Descending Kansas City Center
Tue 12:05:30 PM 38.6153 -98.4528 290° West 204 235 8,300 -532 Descending Kansas City Center
Tue 12:06:32 PM 38.6369 -98.5300 290° West 193 222 7,700 -532 Descending Kansas City Center
Tue 12:07:34 PM 38.6550 -98.5928 290° West 190 219 7,200 -435 Descending Kansas City Center
Tue 12:08:36 PM 38.6739 -98.6592 290° West 197 227 6,800 -435 Descending Kansas City Center
Tue 12:09:38 PM 38.6933 -98.7289 290° West 206 237 6,300 -484 Descending Kansas City Center
Tue 12:10:40 PM 38.7122 -98.7983 289° West 209 241 5,800 -528 Descending Kansas City Center
Tue 12:11:43 PM 38.7322 -98.8731 289° West 215 247 5,200 -720 Descending Kansas City Center
Tue 12:12:45 PM 38.7569 -98.9642 289° West 221 254 4,300 -871 Descending Kansas City Center

Login

Don't have an account? Register now (free) for customized features, flight alerts, and more!